Garland's Hourly Summary for Wednesday, March 15, 2017
Hour Temp
(f)
RH
(%)
Solar Rad.
(MJ/m2)
Rainfall
(in)
Wind
(mph)
3/15/2017 12:00 AM 50 51 0 0 2.62
3/15/2017 1:00 AM 48 47 0 0 6.41
3/15/2017 2:00 AM 46 50 0 0 6.3
3/15/2017 3:00 AM 45 52 0 0 6.21
3/15/2017 4:00 AM 44 54 0 0 6.82
3/15/2017 5:00 AM 45 57 0 0 7.02
3/15/2017 6:00 AM 44 59 0 0 5.79
3/15/2017 7:00 AM 44 63 0 0 6.16
3/15/2017 8:00 AM 43 63 0.01 0 6.3
3/15/2017 9:00 AM 43 62 0.2 0 7.1
3/15/2017 10:00 AM 44 60 0.71 0 6.74
3/15/2017 11:00 AM 46 57 1.65 0 7.36
3/15/2017 12:00 PM 48 54 2.1 0 6.86
3/15/2017 1:00 PM 50 50 2.19 0 6.58
3/15/2017 2:00 PM 53 47 2.45 0 6.5
3/15/2017 3:00 PM 56 43 2.5 0 6.91
3/15/2017 4:00 PM 58 41 2.29 0 7.7
3/15/2017 5:00 PM 59 41 1.7 0 6.15
3/15/2017 6:00 PM 60 41 0.94 0 6.8
3/15/2017 7:00 PM 60 42 0.28 0 6.96
3/15/2017 8:00 PM 59 45 0.04 0 5.68
3/15/2017 9:00 PM 58 48 0 0 4.96
3/15/2017 10:00 PM 56 52 0 0 3.97
3/15/2017 11:00 PM 55 54 0 0 4.23
Data Summary 50 51 17.06 0.00 6.17